sensor_id;sensor_type;location;lat;lon;timestamp;P1;durP1;ratioP1;P2;durP2;ratioP2
67768;SDS011;54569;52.018;5.584;2024-03-06T00:00:56;23.55;;;18.15;;
67768;SDS011;54569;52.018;5.584;2024-03-06T00:03:22;27.27;;;18.48;;
67768;SDS011;54569;52.018;5.584;2024-03-06T00:05:48;23.90;;;17.48;;
67768;SDS011;54569;52.018;5.584;2024-03-06T00:08:14;23.23;;;16.65;;
67768;SDS011;54569;52.018;5.584;2024-03-06T00:10:40;21.00;;;16.83;;
67768;SDS011;54569;52.018;5.584;2024-03-06T00:13:07;20.27;;;16.42;;
67768;SDS011;54569;52.018;5.584;2024-03-06T00:15:33;21.75;;;16.17;;
67768;SDS011;54569;52.018;5.584;2024-03-06T00:17:59;21.48;;;16.33;;
67768;SDS011;54569;52.018;5.584;2024-03-06T00:20:25;21.75;;;17.00;;
67768;SDS011;54569;52.018;5.584;2024-03-06T00:22:51;20.35;;;15.55;;
67768;SDS011;54569;52.018;5.584;2024-03-06T00:25:17;20.73;;;15.02;;
67768;SDS011;54569;52.018;5.584;2024-03-06T00:27:43;18.17;;;14.48;;
67768;SDS011;54569;52.018;5.584;2024-03-06T00:30:08;19.00;;;14.52;;
67768;SDS011;54569;52.018;5.584;2024-03-06T00:32:35;18.92;;;13.65;;
67768;SDS011;54569;52.018;5.584;2024-03-06T00:35:01;15.50;;;12.23;;
67768;SDS011;54569;52.018;5.584;2024-03-06T00:37:27;15.85;;;13.05;;
67768;SDS011;54569;52.018;5.584;2024-03-06T00:39:52;15.45;;;12.63;;
67768;SDS011;54569;52.018;5.584;2024-03-06T00:42:18;17.50;;;13.75;;
67768;SDS011;54569;52.018;5.584;2024-03-06T00:44:44;15.40;;;12.98;;
67768;SDS011;54569;52.018;5.584;2024-03-06T00:47:09;15.73;;;14.07;;
67768;SDS011;54569;52.018;5.584;2024-03-06T00:49:35;14.48;;;12.18;;
67768;SDS011;54569;52.018;5.584;2024-03-06T00:52:01;16.83;;;13.88;;
67768;SDS011;54569;52.018;5.584;2024-03-06T00:54:26;19.98;;;14.43;;
67768;SDS011;54569;52.018;5.584;2024-03-06T00:56:52;23.45;;;14.70;;
67768;SDS011;54569;52.018;5.584;2024-03-06T00:59:18;14.85;;;13.27;;
67768;SDS011;54569;52.018;5.584;2024-03-06T01:01:44;17.02;;;14.13;;
67768;SDS011;54569;52.018;5.584;2024-03-06T01:04:10;17.30;;;12.77;;
67768;SDS011;54569;52.018;5.584;2024-03-06T01:06:35;15.77;;;13.95;;
67768;SDS011;54569;52.018;5.584;2024-03-06T01:09:01;15.48;;;13.35;;
67768;SDS011;54569;52.018;5.584;2024-03-06T01:11:27;17.42;;;13.93;;
67768;SDS011;54569;52.018;5.584;2024-03-06T01:13:53;16.33;;;13.10;;
67768;SDS011;54569;52.018;5.584;2024-03-06T01:16:19;16.75;;;13.65;;
67768;SDS011;54569;52.018;5.584;2024-03-06T01:18:45;13.90;;;12.43;;
67768;SDS011;54569;52.018;5.584;2024-03-06T01:21:11;15.77;;;12.70;;
67768;SDS011;54569;52.018;5.584;2024-03-06T01:23:37;15.40;;;13.13;;
67768;SDS011;54569;52.018;5.584;2024-03-06T01:26:03;17.08;;;13.98;;
67768;SDS011;54569;52.018;5.584;2024-03-06T01:28:29;16.15;;;13.27;;
67768;SDS011;54569;52.018;5.584;2024-03-06T01:30:54;16.15;;;13.07;;
67768;SDS011;54569;52.018;5.584;2024-03-06T01:33:20;15.02;;;12.55;;
67768;SDS011;54569;52.018;5.584;2024-03-06T01:35:47;15.07;;;12.65;;
67768;SDS011;54569;52.018;5.584;2024-03-06T01:38:12;15.70;;;11.95;;
67768;SDS011;54569;52.018;5.584;2024-03-06T01:40:42;14.00;;;11.55;;
67768;SDS011;54569;52.018;5.584;2024-03-06T01:43:16;14.90;;;12.55;;
67768;SDS011;54569;52.018;5.584;2024-03-06T01:45:47;13.68;;;12.18;;
67768;SDS011;54569;52.018;5.584;2024-03-06T01:48:14;17.05;;;12.07;;
67768;SDS011;54569;52.018;5.584;2024-03-06T01:50:45;15.07;;;12.52;;
67768;SDS011;54569;52.018;5.584;2024-03-06T01:53:12;15.45;;;12.45;;
67768;SDS011;54569;52.018;5.584;2024-03-06T01:55:39;16.63;;;14.52;;
67768;SDS011;54569;52.018;5.584;2024-03-06T01:58:05;15.88;;;13.45;;
67768;SDS011;54569;52.018;5.584;2024-03-06T02:00:32;14.90;;;13.05;;
67768;SDS011;54569;52.018;5.584;2024-03-06T02:02:59;16.48;;;13.43;;
67768;SDS011;54569;52.018;5.584;2024-03-06T02:05:26;15.38;;;13.07;;
67768;SDS011;54569;52.018;5.584;2024-03-06T02:07:53;16.48;;;12.13;;
67768;SDS011;54569;52.018;5.584;2024-03-06T02:10:19;19.90;;;14.05;;
67768;SDS011;54569;52.018;5.584;2024-03-06T02:12:45;17.70;;;11.93;;
67768;SDS011;54569;52.018;5.584;2024-03-06T02:15:11;23.52;;;11.75;;
67768;SDS011;54569;52.018;5.584;2024-03-06T02:17:37;19.50;;;12.27;;
67768;SDS011;54569;52.018;5.584;2024-03-06T02:20:03;22.25;;;12.73;;
67768;SDS011;54569;52.018;5.584;2024-03-06T02:22:31;27.50;;;13.15;;
67768;SDS011;54569;52.018;5.584;2024-03-06T02:24:57;22.73;;;13.90;;
67768;SDS011;54569;52.018;5.584;2024-03-06T02:27:23;16.95;;;13.57;;
67768;SDS011;54569;52.018;5.584;2024-03-06T02:29:49;19.77;;;13.75;;
67768;SDS011;54569;52.018;5.584;2024-03-06T02:32:15;19.95;;;13.77;;
67768;SDS011;54569;52.018;5.584;2024-03-06T02:34:43;33.17;;;14.40;;
67768;SDS011;54569;52.018;5.584;2024-03-06T02:37:09;14.10;;;12.25;;
67768;SDS011;54569;52.018;5.584;2024-03-06T02:39:35;14.38;;;12.00;;
67768;SDS011;54569;52.018;5.584;2024-03-06T02:42:00;16.38;;;12.80;;
67768;SDS011;54569;52.018;5.584;2024-03-06T02:44:26;24.80;;;13.05;;
67768;SDS011;54569;52.018;5.584;2024-03-06T02:46:52;26.05;;;13.65;;
67768;SDS011;54569;52.018;5.584;2024-03-06T02:49:18;25.85;;;13.30;;
67768;SDS011;54569;52.018;5.584;2024-03-06T02:51:44;13.90;;;12.20;;
67768;SDS011;54569;52.018;5.584;2024-03-06T02:54:10;26.48;;;11.35;;
67768;SDS011;54569;52.018;5.584;2024-03-06T02:56:35;92.00;;;15.63;;
67768;SDS011;54569;52.018;5.584;2024-03-06T02:59:01;71.55;;;14.13;;
67768;SDS011;54569;52.018;5.584;2024-03-06T03:01:28;19.33;;;13.15;;
67768;SDS011;54569;52.018;5.584;2024-03-06T03:03:55;14.27;;;12.77;;
67768;SDS011;54569;52.018;5.584;2024-03-06T03:06:21;30.58;;;12.60;;
67768;SDS011;54569;52.018;5.584;2024-03-06T03:08:49;13.70;;;12.18;;
67768;SDS011;54569;52.018;5.584;2024-03-06T03:11:15;27.05;;;13.18;;
67768;SDS011;54569;52.018;5.584;2024-03-06T03:13:41;48.95;;;13.60;;
67768;SDS011;54569;52.018;5.584;2024-03-06T03:16:14;23.13;;;12.50;;
67768;SDS011;54569;52.018;5.584;2024-03-06T03:18:45;40.78;;;13.05;;
67768;SDS011;54569;52.018;5.584;2024-03-06T03:21:11;19.23;;;12.65;;
67768;SDS011;54569;52.018;5.584;2024-03-06T03:23:38;26.25;;;11.40;;
67768;SDS011;54569;52.018;5.584;2024-03-06T03:26:05;16.25;;;12.18;;
67768;SDS011;54569;52.018;5.584;2024-03-06T03:28:32;14.98;;;13.10;;
67768;SDS011;54569;52.018;5.584;2024-03-06T03:30:58;16.05;;;13.32;;
67768;SDS011;54569;52.018;5.584;2024-03-06T03:33:24;15.25;;;13.05;;
67768;SDS011;54569;52.018;5.584;2024-03-06T03:35:50;34.80;;;12.68;;
67768;SDS011;54569;52.018;5.584;2024-03-06T03:38:16;57.63;;;13.63;;
67768;SDS011;54569;52.018;5.584;2024-03-06T03:40:42;21.17;;;13.07;;
67768;SDS011;54569;52.018;5.584;2024-03-06T03:43:08;20.33;;;12.85;;
67768;SDS011;54569;52.018;5.584;2024-03-06T03:45:34;13.85;;;11.45;;
67768;SDS011;54569;52.018;5.584;2024-03-06T03:48:01;14.88;;;12.30;;
67768;SDS011;54569;52.018;5.584;2024-03-06T03:50:30;13.30;;;11.90;;
67768;SDS011;54569;52.018;5.584;2024-03-06T03:52:57;15.63;;;11.45;;
67768;SDS011;54569;52.018;5.584;2024-03-06T03:55:25;17.45;;;11.63;;
67768;SDS011;54569;52.018;5.584;2024-03-06T03:57:52;17.85;;;12.55;;
67768;SDS011;54569;52.018;5.584;2024-03-06T04:00:18;16.17;;;11.98;;
67768;SDS011;54569;52.018;5.584;2024-03-06T04:02:44;26.15;;;12.35;;
67768;SDS011;54569;52.018;5.584;2024-03-06T04:05:10;31.00;;;12.55;;
67768;SDS011;54569;52.018;5.584;2024-03-06T04:07:36;40.40;;;12.90;;
67768;SDS011;54569;52.018;5.584;2024-03-06T04:10:02;46.85;;;13.48;;
67768;SDS011;54569;52.018;5.584;2024-03-06T04:12:29;85.45;;;14.80;;
67768;SDS011;54569;52.018;5.584;2024-03-06T04:14:55;28.70;;;12.27;;
67768;SDS011;54569;52.018;5.584;2024-03-06T04:17:22;34.58;;;13.10;;
67768;SDS011;54569;52.018;5.584;2024-03-06T04:19:47;72.90;;;13.98;;
67768;SDS011;54569;52.018;5.584;2024-03-06T04:22:14;43.03;;;13.00;;
67768;SDS011;54569;52.018;5.584;2024-03-06T04:24:43;31.67;;;13.20;;
67768;SDS011;54569;52.018;5.584;2024-03-06T04:27:09;24.77;;;13.00;;
67768;SDS011;54569;52.018;5.584;2024-03-06T04:29:35;40.50;;;14.93;;
67768;SDS011;54569;52.018;5.584;2024-03-06T04:32:01;89.53;;;14.80;;
67768;SDS011;54569;52.018;5.584;2024-03-06T04:34:27;92.75;;;15.70;;
67768;SDS011;54569;52.018;5.584;2024-03-06T04:36:53;82.72;;;15.48;;
67768;SDS011;54569;52.018;5.584;2024-03-06T04:39:19;83.82;;;15.10;;
67768;SDS011;54569;52.018;5.584;2024-03-06T04:41:44;50.28;;;13.05;;
67768;SDS011;54569;52.018;5.584;2024-03-06T04:44:10;68.55;;;13.55;;
67768;SDS011;54569;52.018;5.584;2024-03-06T04:46:36;44.90;;;13.57;;
67768;SDS011;54569;52.018;5.584;2024-03-06T04:49:02;59.53;;;14.23;;
67768;SDS011;54569;52.018;5.584;2024-03-06T04:51:28;92.05;;;15.15;;
67768;SDS011;54569;52.018;5.584;2024-03-06T04:53:54;92.07;;;14.30;;
67768;SDS011;54569;52.018;5.584;2024-03-06T04:56:19;113.30;;;15.00;;
67768;SDS011;54569;52.018;5.584;2024-03-06T04:58:47;127.18;;;16.23;;
67768;SDS011;54569;52.018;5.584;2024-03-06T05:01:13;131.95;;;16.30;;
67768;SDS011;54569;52.018;5.584;2024-03-06T05:03:38;115.50;;;13.63;;
67768;SDS011;54569;52.018;5.584;2024-03-06T05:06:05;108.07;;;15.18;;
67768;SDS011;54569;52.018;5.584;2024-03-06T05:08:31;74.60;;;14.23;;
67768;SDS011;54569;52.018;5.584;2024-03-06T05:10:57;103.43;;;14.60;;
67768;SDS011;54569;52.018;5.584;2024-03-06T05:13:25;114.93;;;16.40;;
67768;SDS011;54569;52.018;5.584;2024-03-06T05:15:52;87.45;;;14.65;;
67768;SDS011;54569;52.018;5.584;2024-03-06T05:18:19;58.00;;;13.57;;
67768;SDS011;54569;52.018;5.584;2024-03-06T05:20:45;67.80;;;15.50;;
67768;SDS011;54569;52.018;5.584;2024-03-06T05:23:11;86.03;;;15.18;;
67768;SDS011;54569;52.018;5.584;2024-03-06T05:25:37;99.95;;;14.82;;
67768;SDS011;54569;52.018;5.584;2024-03-06T05:28:03;122.30;;;15.25;;
67768;SDS011;54569;52.018;5.584;2024-03-06T05:30:30;126.88;;;16.02;;
67768;SDS011;54569;52.018;5.584;2024-03-06T05:32:55;85.10;;;15.40;;
67768;SDS011;54569;52.018;5.584;2024-03-06T05:35:21;96.22;;;14.32;;
67768;SDS011;54569;52.018;5.584;2024-03-06T05:37:47;92.55;;;15.32;;
67768;SDS011;54569;52.018;5.584;2024-03-06T05:40:13;71.97;;;14.77;;
67768;SDS011;54569;52.018;5.584;2024-03-06T05:42:39;90.43;;;15.55;;
67768;SDS011;54569;52.018;5.584;2024-03-06T05:45:05;126.70;;;16.35;;
67768;SDS011;54569;52.018;5.584;2024-03-06T05:47:38;110.22;;;15.85;;
67768;SDS011;54569;52.018;5.584;2024-03-06T05:50:07;65.20;;;14.90;;
67768;SDS011;54569;52.018;5.584;2024-03-06T05:52:35;101.00;;;16.02;;
67768;SDS011;54569;52.018;5.584;2024-03-06T05:55:01;160.77;;;16.50;;
67768;SDS011;54569;52.018;5.584;2024-03-06T05:57:28;124.53;;;16.70;;
67768;SDS011;54569;52.018;5.584;2024-03-06T05:59:53;178.88;;;17.63;;
67768;SDS011;54569;52.018;5.584;2024-03-06T06:02:19;107.50;;;16.52;;
67768;SDS011;54569;52.018;5.584;2024-03-06T06:04:45;143.63;;;17.42;;
67768;SDS011;54569;52.018;5.584;2024-03-06T06:07:11;108.50;;;17.05;;
67768;SDS011;54569;52.018;5.584;2024-03-06T06:09:37;93.68;;;14.52;;
67768;SDS011;54569;52.018;5.584;2024-03-06T06:12:03;92.75;;;14.63;;
67768;SDS011;54569;52.018;5.584;2024-03-06T06:14:29;89.18;;;15.10;;
67768;SDS011;54569;52.018;5.584;2024-03-06T06:16:58;95.78;;;14.50;;
67768;SDS011;54569;52.018;5.584;2024-03-06T06:19:24;123.90;;;17.42;;
67768;SDS011;54569;52.018;5.584;2024-03-06T06:21:53;192.10;;;20.42;;
67768;SDS011;54569;52.018;5.584;2024-03-06T06:24:20;134.60;;;19.08;;
67768;SDS011;54569;52.018;5.584;2024-03-06T06:26:45;162.25;;;19.08;;
67768;SDS011;54569;52.018;5.584;2024-03-06T06:29:11;236.55;;;23.30;;
67768;SDS011;54569;52.018;5.584;2024-03-06T06:31:37;164.73;;;18.63;;
67768;SDS011;54569;52.018;5.584;2024-03-06T06:34:02;150.70;;;18.17;;
67768;SDS011;54569;52.018;5.584;2024-03-06T06:36:28;210.02;;;22.17;;
67768;SDS011;54569;52.018;5.584;2024-03-06T06:38:54;226.40;;;20.92;;
67768;SDS011;54569;52.018;5.584;2024-03-06T06:41:20;147.77;;;17.55;;
67768;SDS011;54569;52.018;5.584;2024-03-06T06:43:46;182.60;;;19.65;;
67768;SDS011;54569;52.018;5.584;2024-03-06T06:46:12;221.18;;;22.20;;
67768;SDS011;54569;52.018;5.584;2024-03-06T06:48:38;162.63;;;19.15;;
67768;SDS011;54569;52.018;5.584;2024-03-06T06:51:03;200.25;;;23.25;;
67768;SDS011;54569;52.018;5.584;2024-03-06T06:53:29;95.22;;;18.85;;
67768;SDS011;54569;52.018;5.584;2024-03-06T06:55:55;89.90;;;19.25;;
67768;SDS011;54569;52.018;5.584;2024-03-06T06:58:22;88.63;;;19.45;;
67768;SDS011;54569;52.018;5.584;2024-03-06T07:00:48;134.27;;;21.50;;
67768;SDS011;54569;52.018;5.584;2024-03-06T07:03:14;130.25;;;20.98;;
67768;SDS011;54569;52.018;5.584;2024-03-06T07:05:40;74.30;;;21.77;;
67768;SDS011;54569;52.018;5.584;2024-03-06T07:08:09;110.85;;;20.52;;
67768;SDS011;54569;52.018;5.584;2024-03-06T07:10:35;110.72;;;22.65;;
67768;SDS011;54569;52.018;5.584;2024-03-06T07:13:01;125.57;;;23.27;;
67768;SDS011;54569;52.018;5.584;2024-03-06T07:15:28;125.13;;;24.02;;
67768;SDS011;54569;52.018;5.584;2024-03-06T07:17:54;142.65;;;25.40;;
67768;SDS011;54569;52.018;5.584;2024-03-06T07:20:20;194.15;;;29.83;;
67768;SDS011;54569;52.018;5.584;2024-03-06T07:22:46;174.13;;;30.90;;
67768;SDS011;54569;52.018;5.584;2024-03-06T07:25:12;123.63;;;25.50;;
67768;SDS011;54569;52.018;5.584;2024-03-06T07:27:37;140.70;;;27.33;;
67768;SDS011;54569;52.018;5.584;2024-03-06T07:30:03;137.60;;;26.35;;
67768;SDS011;54569;52.018;5.584;2024-03-06T07:32:30;148.95;;;24.50;;
67768;SDS011;54569;52.018;5.584;2024-03-06T07:34:56;122.40;;;24.80;;
67768;SDS011;54569;52.018;5.584;2024-03-06T07:37:23;162.18;;;24.75;;
67768;SDS011;54569;52.018;5.584;2024-03-06T07:39:49;121.93;;;23.02;;
67768;SDS011;54569;52.018;5.584;2024-03-06T07:42:15;148.00;;;23.35;;
67768;SDS011;54569;52.018;5.584;2024-03-06T07:44:40;144.43;;;24.27;;
67768;SDS011;54569;52.018;5.584;2024-03-06T07:47:06;188.82;;;24.67;;
67768;SDS011;54569;52.018;5.584;2024-03-06T07:49:32;210.80;;;27.65;;
67768;SDS011;54569;52.018;5.584;2024-03-06T07:51:58;209.07;;;25.75;;
67768;SDS011;54569;52.018;5.584;2024-03-06T07:54:24;141.48;;;26.92;;
67768;SDS011;54569;52.018;5.584;2024-03-06T07:56:49;218.73;;;30.10;;
67768;SDS011;54569;52.018;5.584;2024-03-06T07:59:16;169.02;;;28.17;;
67768;SDS011;54569;52.018;5.584;2024-03-06T08:01:43;181.88;;;29.27;;
67768;SDS011;54569;52.018;5.584;2024-03-06T08:04:09;129.38;;;26.70;;
67768;SDS011;54569;52.018;5.584;2024-03-06T08:06:34;129.70;;;25.60;;
67768;SDS011;54569;52.018;5.584;2024-03-06T08:09:02;192.45;;;28.15;;
67768;SDS011;54569;52.018;5.584;2024-03-06T08:11:28;167.93;;;28.98;;
67768;SDS011;54569;52.018;5.584;2024-03-06T08:13:57;161.68;;;27.50;;
67768;SDS011;54569;52.018;5.584;2024-03-06T08:16:24;146.82;;;27.77;;
67768;SDS011;54569;52.018;5.584;2024-03-06T08:18:50;166.65;;;26.10;;
67768;SDS011;54569;52.018;5.584;2024-03-06T08:21:15;168.15;;;26.05;;
67768;SDS011;54569;52.018;5.584;2024-03-06T08:23:42;176.05;;;25.92;;
67768;SDS011;54569;52.018;5.584;2024-03-06T08:26:08;193.23;;;26.80;;
67768;SDS011;54569;52.018;5.584;2024-03-06T08:28:34;155.75;;;27.98;;
67768;SDS011;54569;52.018;5.584;2024-03-06T08:31:00;180.43;;;26.98;;
67768;SDS011;54569;52.018;5.584;2024-03-06T08:33:26;189.38;;;25.90;;
67768;SDS011;54569;52.018;5.584;2024-03-06T08:35:51;161.15;;;25.88;;
67768;SDS011;54569;52.018;5.584;2024-03-06T08:38:17;149.95;;;27.63;;
67768;SDS011;54569;52.018;5.584;2024-03-06T08:40:43;125.32;;;24.52;;
67768;SDS011;54569;52.018;5.584;2024-03-06T08:43:11;120.47;;;24.55;;
67768;SDS011;54569;52.018;5.584;2024-03-06T08:45:38;117.85;;;25.08;;
67768;SDS011;54569;52.018;5.584;2024-03-06T08:48:04;105.65;;;23.08;;
67768;SDS011;54569;52.018;5.584;2024-03-06T08:50:31;124.93;;;23.88;;
67768;SDS011;54569;52.018;5.584;2024-03-06T08:52:56;101.55;;;23.17;;
67768;SDS011;54569;52.018;5.584;2024-03-06T08:55:22;76.45;;;24.70;;
67768;SDS011;54569;52.018;5.584;2024-03-06T08:57:48;116.43;;;25.10;;
67768;SDS011;54569;52.018;5.584;2024-03-06T09:00:15;116.90;;;23.90;;
67768;SDS011;54569;52.018;5.584;2024-03-06T09:02:42;87.15;;;24.00;;
67768;SDS011;54569;52.018;5.584;2024-03-06T09:05:08;106.85;;;24.55;;
67768;SDS011;54569;52.018;5.584;2024-03-06T09:07:39;95.97;;;23.60;;
67768;SDS011;54569;52.018;5.584;2024-03-06T09:10:08;84.72;;;22.98;;
67768;SDS011;54569;52.018;5.584;2024-03-06T09:12:37;87.43;;;24.17;;
67768;SDS011;54569;52.018;5.584;2024-03-06T09:15:03;92.85;;;24.50;;
67768;SDS011;54569;52.018;5.584;2024-03-06T09:17:29;88.65;;;25.20;;
67768;SDS011;54569;52.018;5.584;2024-03-06T09:19:55;97.95;;;24.73;;
67768;SDS011;54569;52.018;5.584;2024-03-06T09:22:21;112.32;;;26.90;;
67768;SDS011;54569;52.018;5.584;2024-03-06T09:24:47;78.10;;;25.67;;
67768;SDS011;54569;52.018;5.584;2024-03-06T09:27:17;72.18;;;24.88;;
67768;SDS011;54569;52.018;5.584;2024-03-06T09:29:43;93.28;;;26.67;;
67768;SDS011;54569;52.018;5.584;2024-03-06T09:32:09;79.55;;;27.08;;
67768;SDS011;54569;52.018;5.584;2024-03-06T09:34:38;72.78;;;25.10;;
67768;SDS011;54569;52.018;5.584;2024-03-06T09:37:04;60.90;;;25.08;;
67768;SDS011;54569;52.018;5.584;2024-03-06T09:39:30;68.85;;;25.75;;
67768;SDS011;54569;52.018;5.584;2024-03-06T09:41:56;52.47;;;25.58;;
67768;SDS011;54569;52.018;5.584;2024-03-06T09:44:22;49.20;;;24.10;;
67768;SDS011;54569;52.018;5.584;2024-03-06T09:46:48;56.53;;;24.90;;
67768;SDS011;54569;52.018;5.584;2024-03-06T09:49:18;46.40;;;23.90;;
67768;SDS011;54569;52.018;5.584;2024-03-06T09:51:48;63.35;;;26.02;;
67768;SDS011;54569;52.018;5.584;2024-03-06T09:54:18;59.83;;;25.38;;
67768;SDS011;54569;52.018;5.584;2024-03-06T09:56:45;50.75;;;25.13;;
67768;SDS011;54569;52.018;5.584;2024-03-06T09:59:14;44.08;;;24.88;;
67768;SDS011;54569;52.018;5.584;2024-03-06T10:04:22;45.45;;;23.02;;
67768;SDS011;54569;52.018;5.584;2024-03-06T10:06:50;39.30;;;23.08;;
67768;SDS011;54569;52.018;5.584;2024-03-06T10:09:20;45.88;;;23.67;;
67768;SDS011;54569;52.018;5.584;2024-03-06T10:11:46;35.22;;;23.55;;
67768;SDS011;54569;52.018;5.584;2024-03-06T10:14:12;34.47;;;23.40;;
67768;SDS011;54569;52.018;5.584;2024-03-06T10:19:43;32.08;;;22.13;;
67768;SDS011;54569;52.018;5.584;2024-03-06T10:22:15;35.60;;;22.60;;
67768;SDS011;54569;52.018;5.584;2024-03-06T10:24:41;33.58;;;23.38;;
67768;SDS011;54569;52.018;5.584;2024-03-06T10:27:07;33.78;;;22.65;;
67768;SDS011;54569;52.018;5.584;2024-03-06T10:29:33;33.67;;;23.50;;
67768;SDS011;54569;52.018;5.584;2024-03-06T10:32:00;32.65;;;23.08;;
67768;SDS011;54569;52.018;5.584;2024-03-06T10:34:27;32.78;;;21.73;;
67768;SDS011;54569;52.018;5.584;2024-03-06T10:37:03;28.83;;;21.23;;
67768;SDS011;54569;52.018;5.584;2024-03-06T10:39:39;32.08;;;22.90;;
67768;SDS011;54569;52.018;5.584;2024-03-06T10:42:08;34.75;;;23.70;;
67768;SDS011;54569;52.018;5.584;2024-03-06T10:44:38;28.65;;;22.00;;
67768;SDS011;54569;52.018;5.584;2024-03-06T10:47:14;30.17;;;20.92;;
67768;SDS011;54569;52.018;5.584;2024-03-06T10:49:41;29.10;;;21.13;;
67768;SDS011;54569;52.018;5.584;2024-03-06T10:52:08;30.42;;;21.40;;
67768;SDS011;54569;52.018;5.584;2024-03-06T10:54:35;28.52;;;19.98;;
67768;SDS011;54569;52.018;5.584;2024-03-06T10:57:04;27.73;;;20.25;;
67768;SDS011;54569;52.018;5.584;2024-03-06T10:59:30;28.23;;;20.75;;
67768;SDS011;54569;52.018;5.584;2024-03-06T11:01:56;31.45;;;21.75;;
67768;SDS011;54569;52.018;5.584;2024-03-06T11:04:26;29.63;;;21.77;;
67768;SDS011;54569;52.018;5.584;2024-03-06T11:06:58;28.52;;;20.05;;
67768;SDS011;54569;52.018;5.584;2024-03-06T11:09:25;26.35;;;20.20;;
67768;SDS011;54569;52.018;5.584;2024-03-06T11:11:52;28.10;;;21.50;;
67768;SDS011;54569;52.018;5.584;2024-03-06T11:14:20;27.48;;;20.02;;
67768;SDS011;54569;52.018;5.584;2024-03-06T11:19:26;27.75;;;20.30;;
67768;SDS011;54569;52.018;5.584;2024-03-06T11:21:52;26.13;;;18.67;;
67768;SDS011;54569;52.018;5.584;2024-03-06T11:24:19;22.08;;;17.10;;
67768;SDS011;54569;52.018;5.584;2024-03-06T11:26:50;20.13;;;16.75;;
67768;SDS011;54569;52.018;5.584;2024-03-06T11:29:23;21.13;;;16.35;;
67768;SDS011;54569;52.018;5.584;2024-03-06T11:32:02;19.10;;;16.13;;
67768;SDS011;54569;52.018;5.584;2024-03-06T11:34:28;21.05;;;17.15;;
67768;SDS011;54569;52.018;5.584;2024-03-06T11:36:59;20.13;;;16.35;;
67768;SDS011;54569;52.018;5.584;2024-03-06T11:41:59;17.13;;;14.10;;
67768;SDS011;54569;52.018;5.584;2024-03-06T11:44:26;17.85;;;15.75;;
67768;SDS011;54569;52.018;5.584;2024-03-06T11:49:28;17.63;;;15.55;;
67768;SDS011;54569;52.018;5.584;2024-03-06T11:51:59;18.58;;;15.32;;
67768;SDS011;54569;52.018;5.584;2024-03-06T11:54:30;19.77;;;16.30;;
67768;SDS011;54569;52.018;5.584;2024-03-06T11:56:59;18.63;;;16.52;;
67768;SDS011;54569;52.018;5.584;2024-03-06T11:59:29;18.27;;;16.33;;
67768;SDS011;54569;52.018;5.584;2024-03-06T12:01:57;18.40;;;15.25;;
67768;SDS011;54569;52.018;5.584;2024-03-06T12:04:27;17.00;;;15.20;;
67768;SDS011;54569;52.018;5.584;2024-03-06T12:06:58;19.70;;;16.50;;
67768;SDS011;54569;52.018;5.584;2024-03-06T12:09:25;16.80;;;14.95;;
67768;SDS011;54569;52.018;5.584;2024-03-06T12:11:52;16.77;;;15.07;;
67768;SDS011;54569;52.018;5.584;2024-03-06T12:14:18;17.17;;;15.38;;
67768;SDS011;54569;52.018;5.584;2024-03-06T12:16:58;18.58;;;16.67;;
67768;SDS011;54569;52.018;5.584;2024-03-06T12:19:25;18.23;;;16.33;;
67768;SDS011;54569;52.018;5.584;2024-03-06T12:21:53;17.92;;;16.23;;
67768;SDS011;54569;52.018;5.584;2024-03-06T12:24:19;17.25;;;15.55;;
67768;SDS011;54569;52.018;5.584;2024-03-06T12:26:45;16.20;;;14.60;;
67768;SDS011;54569;52.018;5.584;2024-03-06T12:29:17;17.55;;;15.85;;
67768;SDS011;54569;52.018;5.584;2024-03-06T12:31:45;17.27;;;15.68;;
67768;SDS011;54569;52.018;5.584;2024-03-06T12:34:13;16.65;;;14.95;;
67768;SDS011;54569;52.018;5.584;2024-03-06T12:36:42;17.42;;;15.80;;
67768;SDS011;54569;52.018;5.584;2024-03-06T12:39:08;17.08;;;15.25;;
67768;SDS011;54569;52.018;5.584;2024-03-06T12:41:41;17.90;;;16.13;;
67768;SDS011;54569;52.018;5.584;2024-03-06T12:44:07;17.73;;;15.82;;
67768;SDS011;54569;52.018;5.584;2024-03-06T12:46:33;18.88;;;16.98;;
67768;SDS011;54569;52.018;5.584;2024-03-06T12:48:59;20.00;;;17.20;;
67768;SDS011;54569;52.018;5.584;2024-03-06T12:51:25;20.00;;;17.90;;
67768;SDS011;54569;52.018;5.584;2024-03-06T12:53:51;21.67;;;19.27;;
67768;SDS011;54569;52.018;5.584;2024-03-06T12:56:18;22.42;;;18.17;;
67768;SDS011;54569;52.018;5.584;2024-03-06T12:58:44;18.30;;;16.35;;
67768;SDS011;54569;52.018;5.584;2024-03-06T13:01:10;19.13;;;17.02;;
67768;SDS011;54569;52.018;5.584;2024-03-06T13:03:36;19.00;;;16.23;;
67768;SDS011;54569;52.018;5.584;2024-03-06T13:06:03;19.27;;;15.73;;
67768;SDS011;54569;52.018;5.584;2024-03-06T13:08:29;17.33;;;15.52;;
67768;SDS011;54569;52.018;5.584;2024-03-06T13:10:56;19.00;;;15.95;;
67768;SDS011;54569;52.018;5.584;2024-03-06T13:13:22;18.92;;;15.80;;
67768;SDS011;54569;52.018;5.584;2024-03-06T13:15:51;17.33;;;15.20;;
67768;SDS011;54569;52.018;5.584;2024-03-06T13:18:17;16.27;;;14.43;;
67768;SDS011;54569;52.018;5.584;2024-03-06T13:20:43;14.27;;;11.60;;
67768;SDS011;54569;52.018;5.584;2024-03-06T13:23:10;16.48;;;14.48;;
67768;SDS011;54569;52.018;5.584;2024-03-06T13:25:36;16.95;;;13.52;;
67768;SDS011;54569;52.018;5.584;2024-03-06T13:28:02;13.85;;;10.80;;
67768;SDS011;54569;52.018;5.584;2024-03-06T13:30:28;13.88;;;10.70;;
67768;SDS011;54569;52.018;5.584;2024-03-06T13:32:54;12.30;;;9.60;;
67768;SDS011;54569;52.018;5.584;2024-03-06T13:35:20;14.27;;;10.55;;
67768;SDS011;54569;52.018;5.584;2024-03-06T13:37:47;15.88;;;11.85;;
67768;SDS011;54569;52.018;5.584;2024-03-06T13:40:14;13.35;;;11.25;;
67768;SDS011;54569;52.018;5.584;2024-03-06T13:42:41;13.80;;;11.60;;
67768;SDS011;54569;52.018;5.584;2024-03-06T13:45:08;14.10;;;11.25;;
67768;SDS011;54569;52.018;5.584;2024-03-06T13:47:38;13.15;;;10.68;;
67768;SDS011;54569;52.018;5.584;2024-03-06T13:50:06;11.15;;;9.52;;
67768;SDS011;54569;52.018;5.584;2024-03-06T13:52:33;9.05;;;7.88;;
67768;SDS011;54569;52.018;5.584;2024-03-06T13:54:59;8.60;;;7.53;;
67768;SDS011;54569;52.018;5.584;2024-03-06T13:57:27;7.68;;;6.38;;
67768;SDS011;54569;52.018;5.584;2024-03-06T13:59:54;8.00;;;6.53;;
67768;SDS011;54569;52.018;5.584;2024-03-06T14:02:20;5.80;;;5.18;;
67768;SDS011;54569;52.018;5.584;2024-03-06T14:04:46;9.77;;;7.38;;
67768;SDS011;54569;52.018;5.584;2024-03-06T14:07:11;10.30;;;7.90;;
67768;SDS011;54569;52.018;5.584;2024-03-06T14:09:37;10.98;;;7.80;;
67768;SDS011;54569;52.018;5.584;2024-03-06T14:12:03;9.75;;;7.80;;
67768;SDS011;54569;52.018;5.584;2024-03-06T14:14:29;10.50;;;8.38;;
67768;SDS011;54569;52.018;5.584;2024-03-06T14:16:55;10.82;;;8.38;;
67768;SDS011;54569;52.018;5.584;2024-03-06T14:19:21;8.88;;;6.70;;
67768;SDS011;54569;52.018;5.584;2024-03-06T14:21:47;9.63;;;6.63;;
67768;SDS011;54569;52.018;5.584;2024-03-06T14:24:13;8.40;;;7.03;;
67768;SDS011;54569;52.018;5.584;2024-03-06T14:26:39;8.15;;;6.60;;
67768;SDS011;54569;52.018;5.584;2024-03-06T14:29:05;5.00;;;3.90;;